Tiempo atmosférico en la estación meteorológica de San Pedro Manrique, Soria (1096 m.)



Fecha
DESCASC
Temp. máxima en grados centígrados (hora)
DESCASC
Temp. mínima en grados centígrados (hora)
DESCASC
Temp. media en grados centígrados
DESCASC
Racha de viento máxima en m/sg (hora)
DESCASC
Velocidad máxima media en intervalos de 10 minutos(hora)
DESCASC
Precipitaciones diarias en mm
DESCASC
Precipitaciones de 00:00 a 06:00 en mm
DESCASC
Precipitaciones de 06:00 a 12:00 en mm
DESCASC
Precipitaciones de 12:00 a 18:00 en mm
DESCASC
Precipitaciones de 18:00 a 24:00 en mm
DESCASC
20-09-2020 18.3 (13:20) 8.9 (07:20) 13.6 6.39 (15:10) 3.61 (15:10) 8.6 0 0.2 2.6 5.8
19-09-2020 16.8 (18:40) 11.5 (05:40) 14.1 12.5 (14:30) 7.22 (04:30) 6.6 2.8 0 3.8 0
17-09-2020 25.8 (15:00) 13.6 (00:00) 19.7 12.5 (18:50) 7.22 (18:50) 0 0 0 0 0
16-09-2020 27 (13:30) 8.8 (07:50) 17.9 8.33 (12:40) 3.89 (17:10) 0 0 0 0 0
15-09-2020 26.8 (16:50) 14 (00:00) 20.4 8.89 (17:20) 4.72 (12:40) 1 0 1 0 0
14-09-2020 28.6 (16:50) 13 (00:00) 20.8 10.83 (14:10) 6.11 (14:20) 0 0 0 0 0
13-09-2020 30.6 (17:50) 6.2 (00:00) 18.4 9.17 (12:50) 5 (12:40) 0 0 0 0 0
12-09-2020 25.9 (14:20) 3.5 (08:20) 14.7 6.94 (15:40) 4.17 (15:40) 0 0 0 0 0
11-09-2020 25.3 (15:00) 7.1 (00:00) 16.2 7.22 (16:30) 3.61 (16:10) 0 0 0 0 0
10-09-2020 23.7 (16:30) 10.2 (00:00) 17 9.44 (17:20) 5.28 (13:00) 0 0 0 0 0
09-09-2020 24.1 (16:40) 4.2 (08:10) 14.2 9.17 (19:50) 5.83 (20:50) 0 0 0 0 0
08-09-2020 22.1 (17:30) 3.4 (00:00) 12.8 11.94 (01:30) 6.11 (01:30) 0 0 0 0 0
07-09-2020 17.2 (18:40) 9.6 (08:00) 13.4 15.56 (16:10) 7.22 (08:40) 0 0 0 0 0
06-09-2020 19.7 (16:10) 8.3 (00:00) 14 8.89 (18:10) 5.28 (18:00) 0 0 0 0 0
05-09-2020 25.2 (15:20) 7.8 (00:00) 16.5 8.33 (18:50) 5 (18:50) 0 0 0 0 0
04-09-2020 29.6 (17:50) 4.7 (00:00) 17.2 8.89 (16:50) 4.72 (19:10) 0 0 0 0 0
03-09-2020 26.9 (18:00) 1.1 (00:00) 14 6.67 (16:50) 4.17 (16:50) 0 0 0 0 0
02-09-2020 22 (18:00) 6.1 (00:00) 14 9.72 (10:20) 5 (10:20) 0 0 0 0 0
01-09-2020 21.7 (15:40) 6.8 (00:00) 14.3 8.61 (20:20) 5 (21:20) 0 0 0 0 0
31-08-2020 21.3 (17:50) 0.7 (00:00) 11 7.22 (18:10) 4.17 (18:10) 0 0 0 0 0
30-08-2020 14.9 (18:00) 7.5 (00:00) 11.2 12.78 (00:30) 7.5 (00:10) 0 0 0 0 0
29-08-2020 16 (14:50) 7.7 (00:00) 11.8 16.94 (23:20) 10.28 (23:20) 0 0 0 0 0
28-08-2020 21.1 (12:50) 10.6 (00:00) 15.9 8.61 (16:40) 5.28 (14:50) 0 0 0 0 0
27-08-2020 29.8 (15:20) 11.2 (00:00) 20.5 9.17 (19:50) 5.28 (19:50) 0 0 0 0 0
26-08-2020 28.9 (17:20) 9.8 (00:00) 19.3 8.33 (17:10) 4.72 (14:50) 0 0 0 0 0
25-08-2020 29.6 (18:40) 8 (00:00) 18.8 10 (15:30) 5.56 (15:40) 0 0 0 0 0
24-08-2020 25.4 (17:40) 7.3 (06:50) 16.3 6.67 (15:10) 3.89 (15:00) 0 0 0 0 0
23-08-2020 23.2 (16:10) 11.7 (00:00) 17.5 8.61 (16:30) 5.28 (16:30) 0 0 0 0 0

Gráficas

Temp. máximas Temp. mínimas Temp. medias Precipitaciones Rachas de viento máximas Velocidades máximas media en intervalos de 10 minutos

Datos horarios

Fecha y hora oficial Temperatura (ºC) Velocidad del viento (km/h) Dirección del viento Racha (km/h) Dirección de racha Precipitación (mm) Presión (hPa) Tendencia (hPa) Humedad (%)
2020-09-21 23:00:00 11.5 3 Sur 7 Sudoeste 0 -- -- 82
2020-09-21 22:00:00 12.8 0 Calma 8 Noroeste 0 -- -- 79
2020-09-21 21:00:00 14.7 0 Calma 4 Norte 0 -- -- 76
2020-09-21 20:00:00 15.5 2 Oeste 7 Noroeste 0 -- -- 74
2020-09-21 19:00:00 16.1 4 Noroeste 13 Norte 0 -- -- 68
2020-09-21 18:00:00 17.7 5 Norte 17 Norte 0 -- -- 57
2020-09-21 17:00:00 18.2 9 Nordeste 16 Este 0 -- -- 55
2020-09-21 16:00:00 18.8 7 Nordeste 19 Norte 0 -- -- 52
2020-09-21 15:00:00 18.4 12 Nordeste 21 Este 0 -- -- 55
2020-09-21 14:00:00 18.3 4 Norte 13 Este 0 -- -- 52
2020-09-21 13:00:00 17.7 9 Nordeste 16 Este 0 -- -- 59
2020-09-21 12:00:00 16.8 5 Nordeste 12 Nordeste 0 -- -- 64
2020-09-21 11:00:00 14.7 0 Calma 11 Oeste 0 -- -- 67
2020-09-21 10:00:00 11.8 0 Calma 4 Este 0 -- -- 87
2020-09-21 09:00:00 9 0 Calma 0 Calma 0 -- -- 91
2020-09-21 08:00:00 9 0 Calma -- -- 0 -- -- 90
2020-09-21 07:00:00 9.9 0 Calma 2 Sur 0 -- -- 89
2020-09-21 06:00:00 10.6 0 Calma 5 Sur 0 -- -- 90
2020-09-21 05:00:00 10.4 0 Calma -- -- 0 -- -- 90
2020-09-21 04:00:00 10.8 0 Calma -- -- 0 -- -- 90
2020-09-21 03:00:00 10.8 0 Calma 3 Noroeste 0 -- -- 90
2020-09-21 02:00:00 10.8 0 Calma 4 Sudeste 0 -- -- 90
2020-09-21 01:00:00 11.1 0 Calma 3 Noroeste 0 -- -- 89
2020-09-21 00:00:00 11.3 0 Calma 9 Sur 0 -- -- 89
2020-09-20 23:00:00 11.9 3 Sudoeste 5 Sudoeste 0 -- -- 87
2020-09-20 22:00:00 13.2 0 Calma 7 Noroeste 0 -- -- 86
2020-09-20 21:00:00 13.8 5 Sudeste 11 Sudeste 4 -- -- 87
2020-09-20 20:00:00 14.3 0 Calma 5 Este 0.8 -- -- 86
2020-09-20 19:00:00 14.4 3 Nordeste 17 Nordeste 1 -- -- 86
2020-09-20 18:00:00 15.1 8 Nordeste 15 Norte 1 -- -- 82
2020-09-20 17:00:00 14.8 10 Nordeste 21 Nordeste 1.4 -- -- 83
2020-09-20 16:00:00 16.5 3 Sudeste 23 Oeste 0.2 -- -- 80
2020-09-20 15:00:00 18.2 8 Sudoeste 21 Sur 0 -- -- 67
2020-09-20 14:00:00 17.5 5 Norte 18 Sur 0 -- -- 68
2020-09-20 13:00:00 17.9 11 Sur 20 Sur 0 -- -- 67
2020-09-20 12:00:00 16.5 8 Sudoeste 20 Sudoeste 0 -- -- 73
2020-09-20 11:00:00 15.1 5 Sur 14 Sur 0.2 -- -- 78
2020-09-20 10:00:00 12.7 0 Calma 4 Sur 0 -- -- 86
2020-09-20 09:00:00 10.4 2 Sudoeste 5 Noroeste 0 -- -- 88
2020-09-20 08:00:00 9.1 0 Calma 2 Noroeste 0 -- -- 87
2020-09-20 07:00:00 9.3 0 Calma 3 Este 0 -- -- 86
2020-09-20 06:00:00 10.6 2 Noroeste 9 Sur 0 -- -- 83
2020-09-20 05:00:00 11.8 2 Sudeste 10 Sudoeste 0 -- -- 82
2020-09-20 04:00:00 12.2 5 Sudoeste 17 Sudoeste 0 -- -- 82
2020-09-20 03:00:00 11.9 0 Calma 5 Sur 0 -- -- 83
2020-09-20 02:00:00 12.3 0 Calma 7 Sudoeste 0 -- -- 82
2020-09-20 01:00:00 12.2 0 Calma 8 Sudeste 0 -- -- 80
2020-09-20 00:00:00 13.1 0 Calma 7 Oeste 0 -- -- 78
2020-09-19 23:00:00 13.7 3 Noroeste 13 Oeste 0 -- -- 75
2020-09-19 22:00:00 13.7 2 Norte 17 Sudoeste 0 -- -- 77
2020-09-19 21:00:00 13.8 3 Sur 15 Oeste 0 -- -- 76
2020-09-19 20:00:00 15 9 Oeste 24 Sudoeste 0 -- -- 69
2020-09-19 19:00:00 15.9 14 Sudoeste 31 Sudoeste 0 -- -- 66
2020-09-19 18:00:00 15.4 15 Sudoeste 35 Sudoeste 0 -- -- 70
2020-09-19 17:00:00 15.3 22 Sudoeste 37 Sudoeste 0 -- -- 73
2020-09-19 16:00:00 15.8 23 Sudoeste 44 Sudoeste 0.2 -- -- 71
2020-09-19 15:00:00 16.3 22 Sudoeste 45 Sudoeste 0.4 -- -- 70
2020-09-19 14:00:00 15.8 15 Sur 35 Sur 1.4 -- -- 76
2020-09-19 13:00:00 13.8 14 Sudoeste 29 Sur 1.8 -- -- 85
2020-09-19 12:00:00 14.1 13 Sur 32 Sur 0 -- -- 81
2020-09-19 11:00:00 13.3 17 Sur 42 Sur 0 -- -- 82
2020-09-19 10:00:00 13.1 14 Sur 29 Sudoeste 0 -- -- 81
2020-09-19 09:00:00 12.7 13 Sur 29 Sur 0 -- -- 82
2020-09-19 08:00:00 12.1 7 Sudoeste 24 Sudeste 0 -- -- 84
2020-09-19 07:00:00 12.2 8 Noroeste 23 Sudoeste 0 -- -- 81
2020-09-19 06:00:00 11.6 8 Sur 19 Sur 0.8 -- -- 84
2020-09-19 05:00:00 12.4 12 Sudoeste 44 Sur 1.6 -- -- 80
2020-09-19 04:00:00 13.3 18 Sur 34 Sudeste 0.2 -- -- 81
2020-09-19 03:00:00 13 3 Sur 11 Sudoeste 0.2 -- -- 81
2020-09-19 02:00:00 12.7 5 Sudoeste 17 Sudoeste 0 -- -- 81
2020-09-19 01:00:00 12.5 6 Sudoeste 14 Sudoeste 0 -- -- 81
2020-09-19 00:00:00 12.8 7 Sudoeste 17 Sudoeste 0 -- -- 81
2020-09-18 23:00:00 12.8 6 Sudoeste 19 Sur 0 -- -- 82
2020-09-18 22:00:00 13.5 12 Sur 21 Sudoeste 0.2 -- -- 79
2020-09-18 21:00:00 16.5 17 Sur 31 Sur 0.2 -- -- 69
2020-09-18 20:00:00 18.2 12 Sur 24 Sur 0 -- -- 54
2020-09-18 19:00:00 20.1 10 Sur 22 Sudeste 0 -- -- 54
2020-09-18 18:00:00 20.6 13 Sur 33 Sur 0 -- -- 53
2020-09-18 17:00:00 20.9 19 Sur 30 Sur 0 -- -- 53
2020-09-18 16:00:00 18.8 10 Sur 42 Sudeste 0 -- -- 59
2020-09-18 15:00:00 21.5 22 Sudeste 37 Sur 0 -- -- 52
2020-09-18 14:00:00 20.7 19 Sur 35 Sur 0 -- -- 60
2020-09-18 13:00:00 19.4 20 Sur 36 Sur 0 -- -- 65
2020-09-18 12:00:00 17 9 Sudeste 29 Sudeste 1.4 -- -- 80
2020-09-18 11:00:00 17.2 18 Sudeste 40 Sur 0 -- -- 73
2020-09-18 10:00:00 16.3 18 Sudeste 29 Sur 0 -- -- 78
2020-09-18 09:00:00 15.9 17 Sudeste 27 Sur 0 -- -- 78
2020-09-18 08:00:00 15 17 Sudeste 26 Sudeste 0 -- -- 84
2020-09-18 07:00:00 14.7 13 Sudeste 23 Sudeste 0.2 -- -- 86
2020-09-18 06:00:00 15 2 Sur 9 Sudeste 0 -- -- 85
2020-09-18 05:00:00 15.5 2 Sur 17 Sur 1.2 -- -- 82
2020-09-18 04:00:00 15.9 3 Sudeste 21 Sudoeste 0 -- -- 78
2020-09-18 03:00:00 15.4 8 Sudoeste 17 Sudoeste 0 -- -- 79
2020-09-18 02:00:00 15.6 6 Sur 44 Sur 0.8 -- -- 80
2020-09-18 01:00:00 17.4 9 Sudeste 17 Sudeste 0 -- -- 67
2020-09-18 00:00:00 16.5 3 Sudoeste 7 Sur 0 -- -- 70
2020-09-17 23:00:00 17.3 3 Sudoeste 7 Sudoeste 0 -- -- 68
2020-09-17 22:00:00 18.2 2 Oeste 10 Sudeste 0 -- -- 67
2020-09-17 21:00:00 19.1 7 Sudeste 20 Sudeste 0 -- -- 66
2020-09-17 20:00:00 19.5 3 Este 17 Sudeste 0 -- -- 64
2020-09-17 19:00:00 20.5 21 Sudeste 45 Sur 0 -- -- 63
2020-09-17 18:00:00 24.5 13 Sur 31 Sur 0 -- -- 42
2020-09-17 17:00:00 25 15 Sudeste 32 Sur 0 -- -- 41
2020-09-17 16:00:00 24.3 16 Sur 33 Sur 0 -- -- 42
2020-09-17 15:00:00 25.8 19 Sur 37 Sur 0 -- -- 37
2020-09-17 14:00:00 25.1 15 Sudeste 36 Sudeste 0 -- -- 37
2020-09-17 13:00:00 23.1 12 Sudeste 25 Sudeste 0 -- -- 44
2020-09-17 12:00:00 21.8 9 Sudeste 17 Sudeste 0 -- -- 47
2020-09-17 11:00:00 19.6 2 Sudeste 6 Sudeste 0 -- -- 60
2020-09-17 10:00:00 15.8 0 Calma -- -- 0 -- -- 76
2020-09-17 09:00:00 14.1 0 Calma 4 Sudeste 0 -- -- 83
2020-09-17 08:00:00 13.6 2 Sudeste 8 Este 0 -- -- 83
2020-09-17 07:00:00 13.9 3 Sur 5 Este 0 -- -- 81
2020-09-17 06:00:00 13.9 3 Sur 6 Sur 0 -- -- 81
2020-09-17 05:00:00 14 0 Calma 5 Sudoeste 0 -- -- 77
2020-09-17 04:00:00 14.6 2 Este 6 Sudoeste 0 -- -- 76
2020-09-17 03:00:00 14.8 5 Sudoeste 14 Sur 0 -- -- 72
2020-09-17 02:00:00 14.2 0 Calma -- -- 0 -- -- 69
2020-09-17 01:00:00 14.6 2 Sur 5 Sur 0 -- -- 65
2020-09-17 00:00:00 15.1 0 Calma 4 Sur 0 -- -- 65
2020-09-16 23:00:00 16.3 2 Sudoeste 5 Sudoeste 0 -- -- 61
2020-09-16 22:00:00 18.5 0 Calma 5 Sudeste 0 -- -- 56
2020-09-16 21:00:00 20.3 3 Sudeste 9 Este 0 -- -- 50
2020-09-16 20:00:00 22.5 5 Este 14 Este 0 -- -- 45
2020-09-16 19:00:00 23.7 8 Este 23 Este 0 -- -- 43
2020-09-16 18:00:00 24.2 13 Nordeste 26 Este 0 -- -- 43
2020-09-16 17:00:00 25.4 13 Nordeste 29 Este 0 -- -- 40
2020-09-16 16:00:00 25.1 12 Nordeste 23 Nordeste 0 -- -- 40
2020-09-16 15:00:00 25.3 10 Este 17 Este 0 -- -- 39
2020-09-16 14:00:00 26.3 11 Sur 27 Sur 0 -- -- 32
2020-09-16 13:00:00 26.2 8 Sudeste 30 Sur 0 -- -- 32
2020-09-16 12:00:00 24 6 Este 8 Este 0 -- -- 40
2020-09-16 11:00:00 20.7 0 Calma -- -- 0 -- -- 53
2020-09-16 10:00:00 14.5 0 Calma 3 Sudeste 0 -- -- 73
2020-09-16 09:00:00 9.6 0 Calma 4 Sudoeste 0 -- -- 83
2020-09-16 08:00:00 9 0 Calma 4 Sudoeste 0 -- -- 85
2020-09-16 07:00:00 9.2 0 Calma 3 Este 0 -- -- 84
2020-09-16 06:00:00 9.5 0 Calma 4 Sudoeste 0 -- -- 83
2020-09-16 05:00:00 9.9 0 Calma 0 Calma 0 -- -- 80
2020-09-16 04:00:00 10.4 0 Calma 4 Sudoeste 0 -- -- 80
2020-09-16 03:00:00 11.1 2 Sudeste 4 Sur 0 -- -- 78
2020-09-16 02:00:00 12 0 Calma 3 Sur 0 -- -- 77
2020-09-16 01:00:00 13 0 Calma 4 Sur 0 -- -- 73
2020-09-16 00:00:00 14 3 Sur 5 Sudeste 0 -- -- 70
2020-09-15 23:00:00 15.7 0 Calma 4 Sudeste 0 -- -- 66
2020-09-15 22:00:00 17.9 3 Este 6 Noroeste 0 -- -- 60
2020-09-15 21:00:00 20.7 3 Noroeste 10 Nordeste 0 -- -- 53
2020-09-15 20:00:00 23.1 0 Calma 17 Sudoeste 0 -- -- 44
2020-09-15 19:00:00 24.9 8 Sudoeste 20 Sur 0 -- -- 41
2020-09-15 18:00:00 25.7 12 Sur 32 Sur 0 -- -- 39
2020-09-15 17:00:00 25.6 14 Sudoeste 29 Sudoeste 0 -- -- 39
2020-09-15 16:00:00 26.2 13 Sur 28 Sur 0 -- -- 38
2020-09-15 15:00:00 25 15 Sur 26 Sudoeste 0 -- -- 41
2020-09-15 14:00:00 24.6 12 Sur 27 Sur 0 -- -- 42
2020-09-15 13:00:00 22.9 15 Sur 30 Sur 0 -- -- 44
2020-09-15 12:00:00 22.3 10 Sur 29 Sudoeste 0 -- -- 46
2020-09-15 11:00:00 17.7 5 Sudoeste 24 Sudoeste 0 -- -- 69
2020-09-15 10:00:00 17.1 7 Sur 19 Sudeste 0 -- -- 71
2020-09-15 09:00:00 15.2 2 Sur 7 Sudeste 1 -- -- 79
2020-09-15 08:00:00 16.1 3 Sur 10 Oeste 0 -- -- 69
2020-09-15 07:00:00 17.2 0 Calma 18 Oeste 0 -- -- 62
2020-09-15 06:00:00 17.2 3 Sudoeste 11 Sur 0 -- -- 59
2020-09-15 05:00:00 17.9 6 Sudoeste 14 Sudoeste 0 -- -- 56
2020-09-15 04:00:00 17 0 Calma 6 Sudeste 0 -- -- 60
2020-09-15 03:00:00 17.4 4 Noroeste 8 Oeste 0 -- -- 58
2020-09-15 02:00:00 16.6 3 Noroeste 9 Este 0 -- -- 59
2020-09-15 01:00:00 16.5 2 Sudoeste 8 Este 0 -- -- 57
2020-09-15 00:00:00 16.7 0 Calma 5 Sur 0 -- -- 56
2020-09-14 23:00:00 17.9 2 Sudoeste 7 Sudeste 0 -- -- 52
2020-09-14 22:00:00 19 3 Noroeste 6 Noroeste 0 -- -- 49
2020-09-14 21:00:00 20.7 0 Calma -- -- 0 -- -- 47
2020-09-14 20:00:00 23.1 0 Calma 18 Oeste 0 -- -- 42
2020-09-14 19:00:00 25 6 Sudeste 21 Sur 0 -- -- 35
2020-09-14 18:00:00 26.4 11 Sudeste 26 Sur 0 -- -- 29
2020-09-14 17:00:00 28 12 Sur 32 Sur 0 -- -- 26
2020-09-14 16:00:00 27.8 16 Sudeste 36 Sur 0 -- -- 27
2020-09-14 15:00:00 27.9 22 Sudeste 39 Sudeste 0 -- -- 26
2020-09-14 14:00:00 27.5 14 Sudoeste 29 Sur 0 -- -- 29
2020-09-14 13:00:00 25.5 13 Sudoeste 31 Sur 0 -- -- 33
2020-09-14 12:00:00 24 10 Sur 19 Sudoeste 0 -- -- 35
2020-09-14 11:00:00 21 5 Sudoeste 16 Sur 0 -- -- 46
2020-09-14 10:00:00 20.4 7 Sur 15 Sur 0 -- -- 47
2020-09-14 09:00:00 16.4 5 Sudoeste 13 Sudoeste 0 -- -- 60
2020-09-14 08:00:00 15 7 Sudoeste 11 Sudoeste 0 -- -- 62
2020-09-14 07:00:00 16 2 Sudoeste 15 Sur 0 -- -- 59
2020-09-14 06:00:00 17.9 5 Sur 21 Sur 0 -- -- 53
2020-09-14 05:00:00 17.3 5 Sur 14 Sudoeste 0 -- -- 52
2020-09-14 04:00:00 14.4 3 Sudoeste 9 Sudoeste 0 -- -- 57
2020-09-14 03:00:00 13.1 3 Sudeste 9 Sudeste 0 -- -- 57
2020-09-14 02:00:00 13.6 2 Sudoeste 6 Este 0 -- -- 54
2020-09-14 01:00:00 15.3 4 Sudoeste 8 Sudoeste 0 -- -- 48
2020-09-14 00:00:00 16.4 0 Calma 10 Noroeste 0 -- -- 50
2020-09-13 23:00:00 17.5 3 Oeste 9 Sudeste 0 -- -- 48
2020-09-13 22:00:00 19.8 4 Norte 8 Norte 0 -- -- 44
2020-09-13 21:00:00 22.6 2 Norte 11 Nordeste 0 -- -- 38
2020-09-13 20:00:00 25.1 9 Este 23 Este 0 -- -- 34
2020-09-13 19:00:00 27.2 10 Sudeste 18 Sudeste 0 -- -- 30
2020-09-13 18:00:00 30.3 5 Sur 16 Sudoeste 0 -- -- 28
2020-09-13 17:00:00 30 8 Sur 27 Sudeste 0 -- -- 23
2020-09-13 16:00:00 29.7 7 Sur 32 Sudeste 0 -- -- 25
2020-09-13 15:00:00 28.6 7 Sur 27 Sur 0 -- -- 26
2020-09-13 14:00:00 27.7 13 Sur 30 Sur 0 -- -- 31
2020-09-13 13:00:00 26 18 Sudoeste 33 Sur 0 -- -- 34
2020-09-13 12:00:00 24.9 13 Sur 29 Sur 0 -- -- 37
2020-09-13 11:00:00 22.9 13 Sudoeste 31 Sur 0 -- -- 43
2020-09-13 10:00:00 15.3 5 Sudoeste 10 Sudoeste 0 -- -- 67
2020-09-13 09:00:00 8 0 Calma 5 Sudeste 0 -- -- 82
2020-09-13 08:00:00 6.2 0 Calma 2 Oeste 0 -- -- 82
2020-09-13 07:00:00 6.4 0 Calma 3 Sudeste 0 -- -- 82
2020-09-13 06:00:00 6.9 0 Calma 3 Este 0 -- -- 81
2020-09-13 05:00:00 7.3 2 Sudeste 6 Sur 0 -- -- 80
2020-09-13 04:00:00 7.8 0 Calma 3 Sur 0 -- -- 80
2020-09-13 03:00:00 8.1 0 Calma 3 Sur 0 -- -- 75
2020-09-13 02:00:00 8.6 3 Sur 7 Sur 0 -- -- 71
2020-09-13 01:00:00 10 0 Calma 4 Sur 0 -- -- 67
2020-09-13 00:00:00 11.1 0 Calma 6 Sudoeste 0 -- -- 63
2020-09-12 23:00:00 12.5 0 Calma 8 Sudoeste 0 -- -- 57
2020-09-12 22:00:00 15.1 2 Sudeste 5 Sudoeste 0 -- -- 50
2020-09-12 21:00:00 19.2 3 Noroeste 17 Norte 0 -- -- 43
2020-09-12 20:00:00 22.4 9 Norte 20 Nordeste 0 -- -- 35
2020-09-12 19:00:00 24.8 9 Nordeste 21 Nordeste 0 -- -- 33
2020-09-12 18:00:00 25.3 11 Nordeste 23 Nordeste 0 -- -- 34
2020-09-12 17:00:00 25.6 11 Nordeste 24 Nordeste 0 -- -- 35
2020-09-12 16:00:00 25.6 12 Nordeste 25 Nordeste 0 -- -- 36
2020-09-12 15:00:00 25.6 10 Norte 21 Nordeste 0 -- -- 33
2020-09-12 14:00:00 25.5 4 Sudeste 15 Sudeste 0 -- -- 20
2020-09-12 13:00:00 24 6 Este 21 Este 0 -- -- 22
2020-09-12 12:00:00 22.4 3 Nordeste 9 Norte 0 -- -- 29
2020-09-12 11:00:00 17.2 0 Calma 6 Sudeste 0 -- -- 44
2020-09-12 10:00:00 9.8 2 Este 4 Sudeste 0 -- -- 68
2020-09-12 09:00:00 4.8 0 Calma 5 Sur 0 -- -- 80
2020-09-12 08:00:00 3.6 0 Calma 3 Sur 0 -- -- 81
2020-09-12 07:00:00 4.5 0 Calma 3 Sudoeste 0 -- -- 80
2020-09-12 06:00:00 5.7 0 Calma 2 Sur 0 -- -- 80
2020-09-12 05:00:00 7 0 Calma 2 Sur 0 -- -- 82
2020-09-12 04:00:00 8.1 0 Calma 7 Sur 0 -- -- 81
2020-09-12 03:00:00 9.2 3 Sur 8 Sur 0 -- -- 81
2020-09-12 02:00:00 10.4 0 Calma 6 Sudeste 0 -- -- 79
2020-09-12 01:00:00 11.8 3 Sudeste 8 Sur 0 -- -- 76
2020-09-12 00:00:00 13.1 3 Sur 8 Sur 0 -- -- 74
2020-09-11 23:00:00 15.4 2 Sudoeste 6 Sudoeste 0 -- -- 66
2020-09-11 22:00:00 18.7 0 Calma 21 Norte 0 -- -- 59
2020-09-11 21:00:00 20.2 9 Norte 20 Norte 0 -- -- 53
2020-09-11 20:00:00 22.1 10 Norte 24 Noroeste 0 -- -- 40
2020-09-11 19:00:00 23.9 12 Norte 25 Norte 0 -- -- 32
2020-09-11 18:00:00 25.1 11 Norte 22 Norte 0 -- -- 35
2020-09-11 17:00:00 25.1 11 Nordeste 26 Nordeste 0 -- -- 39
2020-09-11 16:00:00 25 11 Norte 21 Nordeste 0 -- -- 40
2020-09-11 15:00:00 25.3 8 Este 23 Este 0 -- -- 40
2020-09-11 14:00:00 24 4 Sur 14 Nordeste 0 -- -- 39
2020-09-11 13:00:00 22.6 4 Este 14 Nordeste 0 -- -- 43
2020-09-11 12:00:00 20.9 7 Nordeste 14 Nordeste 0 -- -- 46
2020-09-11 11:00:00 17.7 0 Calma 6 Nordeste 0 -- -- 60
2020-09-11 10:00:00 12.9 3 Sudeste 5 Sudeste 0 -- -- 76
2020-09-11 09:00:00 8.4 2 Sudeste 6 Noroeste 0 -- -- 85
2020-09-11 08:00:00 7.4 2 Oeste 5 Sur 0 -- -- 86
2020-09-11 07:00:00 7.9 0 Calma 5 Sudeste 0 -- -- 81
2020-09-11 06:00:00 8.4 2 Sudoeste 5 Este 0 -- -- 81
2020-09-11 05:00:00 8.8 0 Calma 6 Este 0 -- -- 79
2020-09-11 04:00:00 8.2 3 Sudeste 6 Sudeste 0 -- -- 77
2020-09-11 03:00:00 8.3 2 Sur 6 Sur 0 -- -- 76
2020-09-11 02:00:00 9.6 0 Calma 8 Este 0 -- -- 73
2020-09-11 01:00:00 11.5 2 Noroeste 6 Oeste 0 -- -- 67
2020-09-11 00:00:00 14.3 4 Noroeste 14 Oeste 0 -- -- 60
2020-09-10 23:00:00 16.3 5 Noroeste 18 Noroeste 0 -- -- 54
2020-09-10 22:00:00 17.5 6 Norte 14 Norte 0 -- -- 52
2020-09-10 21:00:00 18.7 9 Norte 22 Nordeste 0 -- -- 47
2020-09-10 20:00:00 20.6 8 Norte 26 Norte 0 -- -- 40
2020-09-10 19:00:00 22.7 13 Norte 29 Noroeste 0 -- -- 36
2020-09-10 18:00:00 23.4 15 Norte 34 Noroeste 0 -- -- 35
2020-09-10 17:00:00 23.6 17 Norte 33 Noroeste 0 -- -- 35
2020-09-10 16:00:00 23.2 16 Noroeste 30 Noroeste 0 -- -- 35
2020-09-10 15:00:00 22.8 13 Norte 30 Noroeste 0 -- -- 35
2020-09-10 14:00:00 22.8 10 Norte 30 Nordeste 0 -- -- 39
2020-09-10 13:00:00 21.1 19 Nordeste 30 Nordeste 0 -- -- 42
2020-09-10 12:00:00 20.9 13 Nordeste 25 Nordeste 0 -- -- 44
2020-09-10 11:00:00 19.7 9 Norte 24 Norte 0 -- -- 47
2020-09-10 10:00:00 17.5 6 Nordeste 14 Nordeste 0 -- -- 55
2020-09-10 09:00:00 11.4 0 Calma 6 Noroeste 0 -- -- 76
2020-09-10 08:00:00 10.4 0 Calma 5 Sudoeste 0 -- -- 76
2020-09-10 07:00:00 11.4 4 Sur 11 Oeste 0 -- -- 73
2020-09-10 06:00:00 12 2 Norte 11 Noroeste 0 -- -- 71
2020-09-10 05:00:00 12.1 2 Noroeste 7 Noroeste 0 -- -- 70
2020-09-10 04:00:00 12.8 3 Oeste 10 Sudeste 0 -- -- 68
2020-09-10 03:00:00 13.6 6 Sur 12 Norte 0 -- -- 66
2020-09-10 02:00:00 15.5 3 Nordeste 20 Noroeste 0 -- -- 61
2020-09-10 01:00:00 15.9 9 Norte 25 Norte 0 -- -- 61
2020-09-10 00:00:00 16.3 8 Norte 33 Nordeste 0 -- -- 61
2020-09-09 23:00:00 17 12 Norte 32 Noroeste 0 -- -- 61
2020-09-09 22:00:00 17.9 14 Norte 32 Norte 0 -- -- 59
2020-09-09 21:00:00 18.9 15 Norte 30 Norte 0 -- -- 53
2020-09-09 20:00:00 20.2 19 Norte 33 Norte 0 -- -- 49
2020-09-09 19:00:00 23.2 14 Norte 32 Noroeste 0 -- -- 36
2020-09-09 18:00:00 23.8 16 Norte 28 Noroeste 0 -- -- 33
2020-09-09 17:00:00 23.6 18 Noroeste 31 Noroeste 0 -- -- 33
2020-09-09 16:00:00 23.3 11 Norte 27 Norte 0 -- -- 32
2020-09-09 15:00:00 23 13 Norte 29 Norte 0 -- -- 33
2020-09-09 14:00:00 22.4 16 Nordeste 30 Norte 0 -- -- 33
2020-09-09 13:00:00 22.2 10 Nordeste 25 Este 0 -- -- 34
2020-09-09 12:00:00 21.1 13 Nordeste 26 Nordeste 0 -- -- 34
2020-09-09 11:00:00 18.7 0 Calma 5 Norte 0 -- -- 43
2020-09-09 10:00:00 12.5 2 Este 5 Este 0 -- -- 59
2020-09-09 09:00:00 5.9 0 Calma 5 Sudeste 0 -- -- 80
2020-09-09 08:00:00 4.3 0 Calma 5 Sudoeste 0 -- -- 78
2020-09-09 07:00:00 4.8 0 Calma 3 Sudeste 0 -- -- 77
2020-09-09 06:00:00 5.2 0 Calma 6 Este 0 -- -- 75
2020-09-09 05:00:00 5.6 0 Calma 4 Sur 0 -- -- 74
2020-09-09 04:00:00 5.8 0 Calma 3 Sudoeste 0 -- -- 72
2020-09-09 03:00:00 6.3 0 Calma 5 Sudeste 0 -- -- 71
2020-09-09 02:00:00 7.1 2 Sudoeste 5 Sudoeste 0 -- -- 67
2020-09-09 01:00:00 7.9 0 Calma 3 Sudeste 0 -- -- 64
2020-09-09 00:00:00 9.2 0 Calma 4 Sur 0 -- -- 60
2020-09-08 23:00:00 10.7 0 Calma 4 Este 0 -- -- 56
2020-09-08 22:00:00 13.2 3 Este 5 Este 0 -- -- 49
2020-09-08 21:00:00 16.8 3 Oeste 15 Nordeste 0 -- -- 40
2020-09-08 20:00:00 18.7 11 Este 21 Este 0 -- -- 36
2020-09-08 19:00:00 21.2 14 Nordeste 24 Nordeste 0 -- -- 31
2020-09-08 18:00:00 21.8 11 Nordeste 24 Norte 0 -- -- 29
2020-09-08 17:00:00 22 9 Norte 20 Nordeste 0 -- -- 29
2020-09-08 16:00:00 21.4 8 Norte 19 Nordeste 0 -- -- 30
2020-09-08 15:00:00 19.9 12 Norte 21 Norte 0 -- -- 32
2020-09-08 14:00:00 18.8 11 Nordeste 25 Nordeste 0 -- -- 35
2020-09-08 13:00:00 17.6 14 Nordeste 27 Nordeste 0 -- -- 40
2020-09-08 12:00:00 16.8 9 Norte 18 Nordeste 0 -- -- 42
2020-09-08 11:00:00 14.2 2 Sudoeste 6 Norte 0 -- -- 54
2020-09-08 10:00:00 9.7 4 Este 6 Este 0 -- -- 73
2020-09-08 09:00:00 4.7 0 Calma 2 Sudeste 0 -- -- 87
2020-09-08 08:00:00 3.4 0 Calma 2 Este 0 -- -- 86
2020-09-08 07:00:00 4.4 0 Calma 3 Sudoeste 0 -- -- 84
2020-09-08 06:00:00 5.3 0 Calma 4 Sur 0 -- -- 82
2020-09-08 05:00:00 7.1 2 Sur 10 Norte 0 -- -- 78
2020-09-08 04:00:00 9.6 0 Calma 19 Norte 0 -- -- 73
2020-09-08 03:00:00 10 7 Norte 39 Norte 0 -- -- 72
2020-09-08 02:00:00 10.2 15 Norte 43 Norte 0 -- -- 71
2020-09-08 01:00:00 10.6 15 Norte 40 Nordeste 0 -- -- 68
2020-09-08 00:00:00 10.6 15 Norte 36 Norte 0 -- -- 66
2020-09-07 23:00:00 10.9 15 Norte 36 Norte 0 -- -- 63
2020-09-07 22:00:00 11.4 9 Norte 26 Noroeste 0 -- -- 60
2020-09-07 21:00:00 12.4 12 Norte 23 Norte 0 -- -- 54
2020-09-07 20:00:00 14 9 Norte 29 Nordeste 0 -- -- 47
2020-09-07 19:00:00 16.7 10 Norte 35 Norte 0 -- -- 43
2020-09-07 18:00:00 16.7 20 Norte 48 Noroeste 0 -- -- 43
2020-09-07 17:00:00 16.7 24 Norte 56 Noroeste 0 -- -- 42
2020-09-07 16:00:00 16.8 26 Norte 53 Norte 0 -- -- 45
2020-09-07 15:00:00 16 19 Norte 42 Noroeste 0 -- -- 47
2020-09-07 14:00:00 14.9 20 Norte 40 Noroeste 0 -- -- 50
2020-09-07 13:00:00 13.9 19 Noroeste 42 Noroeste 0 -- -- 55
2020-09-07 12:00:00 13.8 14 Norte 47 Nordeste 0 -- -- 56
2020-09-07 11:00:00 12.7 16 Norte 41 Norte 0 -- -- 63
2020-09-07 10:00:00 11 17 Norte 48 Nordeste 0 -- -- 68
2020-09-07 09:00:00 10 19 Noroeste 47 Noroeste 0 -- -- 71
2020-09-07 08:00:00 9.6 13 Norte 32 Noroeste 0 -- -- 74
2020-09-07 07:00:00 10.3 14 Norte 26 Noroeste 0 -- -- 65
2020-09-07 06:00:00 10.2 16 Noroeste 32 Noroeste 0 -- -- 65
2020-09-07 05:00:00 10.7 17 Noroeste 38 Noroeste 0 -- -- 67
2020-09-07 04:00:00 10.5 17 Noroeste 39 Norte 0 -- -- 68
2020-09-07 03:00:00 10.9 22 Norte 37 Norte 0 -- -- 70
2020-09-07 02:00:00 11.1 15 Noroeste 24 Noroeste 0 -- -- 67
2020-09-07 01:00:00 11.3 12 Noroeste 21 Nordeste 0 -- -- 70
2020-09-07 00:00:00 11.9 10 Norte 26 Noroeste 0 -- -- 69
2020-09-06 23:00:00 12 7 Noroeste 23 Noroeste 0 -- -- 66
2020-09-06 22:00:00 12.2 9 Norte 21 Norte 0 -- -- 65
2020-09-06 21:00:00 12.8 10 Noroeste 31 Noroeste 0 -- -- 63
2020-09-06 20:00:00 14.6 13 Noroeste 29 Norte 0 -- -- 58
2020-09-06 19:00:00 16.7 12 Noroeste 32 Noroeste 0 -- -- 53
2020-09-06 18:00:00 17.2 19 Noroeste 31 Noroeste 0 -- -- 54
2020-09-06 17:00:00 18.5 13 Nordeste 29 Nordeste 0 -- -- 54
2020-09-06 16:00:00 19.3 7 Norte 20 Noroeste 0 -- -- 54
2020-09-06 15:00:00 17.7 8 Noroeste 23 Noroeste 0 -- -- 59
2020-09-06 14:00:00 16.4 11 Noroeste 26 Nordeste 0 -- -- 63
2020-09-06 13:00:00 16.4 17 Nordeste 30 Nordeste 0 -- -- 64
2020-09-06 12:00:00 16.3 12 Nordeste 19 Nordeste 0 -- -- 65
2020-09-06 11:00:00 14.3 3 Nordeste 8 Nordeste 0 -- -- 72
2020-09-06 10:00:00 12.7 4 Sudoeste 8 Oeste 0 -- -- 79
2020-09-06 09:00:00 10.5 4 Sudeste 6 Este 0 -- -- 87
2020-09-06 08:00:00 9 0 Calma 5 Este 0 -- -- 88
2020-09-06 07:00:00 8.8 0 Calma -- -- 0 -- -- 88
2020-09-06 06:00:00 8.3 0 Calma 4 Sur 0 -- -- 86
2020-09-06 05:00:00 8.8 0 Calma 6 Este 0 -- -- 87
2020-09-06 04:00:00 9.9 3 Sudoeste 8 Sur 0 -- -- 86
2020-09-06 03:00:00 10.4 0 Calma 4 Norte 0 -- -- 83
2020-09-06 02:00:00 11.1 3 Noroeste 4 Noroeste 0 -- -- 83
2020-09-06 01:00:00 11.8 2 Este 4 Este 0 -- -- 81
2020-09-06 00:00:00 13 0 Calma 3 Sudoeste 0 -- -- 80
2020-09-05 23:00:00 14.3 0 Calma 13 Nordeste 0 -- -- 76
2020-09-05 22:00:00 15.3 10 Nordeste 20 Nordeste 0 -- -- 75
2020-09-05 21:00:00 16.5 14 Nordeste 26 Nordeste 0 -- -- 71
2020-09-05 20:00:00 19.1 13 Nordeste 30 Nordeste 0 -- -- 62
2020-09-05 19:00:00 21.9 12 Norte 30 Norte 0 -- -- 56
2020-09-05 18:00:00 24.1 12 Norte 25 Nordeste 0 -- -- 51
2020-09-05 17:00:00 24.6 12 Nordeste 25 Nordeste 0 -- -- 49
2020-09-05 16:00:00 24.5 14 Nordeste 24 Norte 0 -- -- 47
2020-09-05 15:00:00 24.7 12 Nordeste 23 Nordeste 0 -- -- 45
2020-09-05 14:00:00 24.2 9 Norte 22 Norte 0 -- -- 46
2020-09-05 13:00:00 22.7 10 Nordeste 19 Nordeste 0 -- -- 49
2020-09-05 12:00:00 21.8 8 Norte 19 Norte 0 -- -- 52
2020-09-05 11:00:00 20.5 9 Nordeste 15 Nordeste 0 -- -- 54
2020-09-05 10:00:00 15.6 0 Calma 4 Este 0 -- -- 63
2020-09-05 09:00:00 10 0 Calma 4 Sudeste 0 -- -- 79
2020-09-05 08:00:00 7.9 0 Calma 5 Oeste 0 -- -- 79
2020-09-05 07:00:00 8.6 0 Calma 2 Sur 0 -- -- 78
2020-09-05 06:00:00 9 0 Calma 5 Sur 0 -- -- 75
2020-09-05 05:00:00 9.6 0 Calma 4 Sur 0 -- -- 73
2020-09-05 04:00:00 10 0 Calma 3 Sudoeste 0 -- -- 72
2020-09-05 03:00:00 10.4 0 Calma 4 Este 0 -- -- 70
2020-09-05 02:00:00 11.6 0 Calma 3 Sudeste 0 -- -- 67
2020-09-05 01:00:00 12.8 0 Calma 4 Sur 0 -- -- 64
2020-09-05 00:00:00 14.1 0 Calma 4 Sudeste 0 -- -- 60
2020-09-04 23:00:00 15.7 2 Sudeste 4 Sudeste 0 -- -- 56
2020-09-04 22:00:00 18.9 2 Sudeste 8 Nordeste 0 -- -- 48
2020-09-04 21:00:00 23 5 Nordeste 18 Nordeste 0 -- -- 39
2020-09-04 20:00:00 25 8 Este 26 Nordeste 0 -- -- 37
2020-09-04 19:00:00 27.7 14 Nordeste 25 Nordeste 0 -- -- 35
2020-09-04 18:00:00 29.4 9 Sudeste 29 Nordeste 0 -- -- 32
2020-09-04 17:00:00 27.4 15 Nordeste 32 Nordeste 0 -- -- 38
2020-09-04 16:00:00 27.5 9 Nordeste 27 Nordeste 0 -- -- 38
2020-09-04 15:00:00 27.1 13 Nordeste 25 Este 0 -- -- 39
2020-09-04 14:00:00 27.6 4 Norte 21 Sur 0 -- -- 38
2020-09-04 13:00:00 27.2 10 Sur 24 Este 0 -- -- 33
2020-09-04 12:00:00 25.6 10 Sudeste 23 Sudeste 0 -- -- 36
2020-09-04 11:00:00 23 13 Sudeste 22 Sudeste 0 -- -- 43
2020-09-04 10:00:00 14.9 0 Calma 3 Este 0 -- -- 57
2020-09-04 09:00:00 7.5 0 Calma 5 Este 0 -- -- 78
2020-09-04 08:00:00 4.9 2 Sur 4 Sudoeste 0 -- -- 80
2020-09-04 07:00:00 5 0 Calma 4 Sudoeste 0 -- -- 76
2020-09-04 06:00:00 5.2 0 Calma 4 Este 0 -- -- 77
2020-09-04 05:00:00 5.8 0 Calma 4 Sur 0 -- -- 74
2020-09-04 04:00:00 6.4 0 Calma 2 Sur 0 -- -- 72
2020-09-04 03:00:00 7.3 0 Calma 5 Sudoeste 0 -- -- 71
2020-09-04 02:00:00 8.3 0 Calma 5 Sur 0 -- -- 68
2020-09-04 01:00:00 9.7 0 Calma 3 Oeste 0 -- -- 63
2020-09-04 00:00:00 11.4 0 Calma 5 Sudoeste 0 -- -- 60
2020-09-03 23:00:00 13.5 0 Calma 4 Sudoeste 0 -- -- 53
2020-09-03 22:00:00 16.2 2 Sudoeste 4 Oeste 0 -- -- 45
2020-09-03 21:00:00 20.2 3 Oeste 11 Nordeste 0 -- -- 37
2020-09-03 20:00:00 23.3 7 Nordeste 16 Norte 0 -- -- 32
2020-09-03 19:00:00 26.2 10 Nordeste 20 Nordeste 0 -- -- 29
2020-09-03 18:00:00 26.9 9 Nordeste 22 Nordeste 0 -- -- 28
2020-09-03 17:00:00 26 15 Nordeste 24 Norte 0 -- -- 29
2020-09-03 16:00:00 25.9 13 Nordeste 22 Norte 0 -- -- 30
2020-09-03 15:00:00 25.3 12 Nordeste 22 Norte 0 -- -- 31
2020-09-03 14:00:00 25.1 10 Nordeste 16 Norte 0 -- -- 29
2020-09-03 13:00:00 24.6 6 Nordeste 18 Este 0 -- -- 23
2020-09-03 12:00:00 23.2 6 Este 15 Este 0 -- -- 30
2020-09-03 11:00:00 18.5 0 Calma 4 Noroeste 0 -- -- 35
2020-09-03 10:00:00 10.9 0 Calma 5 Sudeste 0 -- -- 50
2020-09-03 09:00:00 3.7 0 Calma 3 Sudeste 0 -- -- 77
2020-09-03 08:00:00 1.1 0 Calma 3 Sur 0 -- -- 77
2020-09-03 07:00:00 1.8 0 Calma 6 Sudoeste 0 -- -- 77
2020-09-03 06:00:00 2.6 2 Sur 6 Sur 0 -- -- 76
2020-09-03 05:00:00 3.4 0 Calma 8 Sur 0 -- -- 79
2020-09-03 04:00:00 4.3 0 Calma 6 Sur 0 -- -- 78
2020-09-03 03:00:00 5.2 3 Sur 6 Sur 0 -- -- 76
2020-09-03 02:00:00 6.3 0 Calma 6 Sudeste 0 -- -- 76
2020-09-03 01:00:00 7.5 4 Sur 9 Sur 0 -- -- 73
2020-09-03 00:00:00 9.4 0 Calma 6 Sudoeste 0 -- -- 66
2020-09-02 23:00:00 12 0 Calma 9 Sudoeste 0 -- -- 59
2020-09-02 22:00:00 15.4 4 Norte 15 Norte 0 -- -- 51
2020-09-02 21:00:00 17.3 11 Norte 21 Noroeste 0 -- -- 46
2020-09-02 20:00:00 18.9 10 Norte 27 Norte 0 -- -- 40
2020-09-02 19:00:00 21.1 13 Norte 27 Norte 0 -- -- 38
2020-09-02 18:00:00 22 11 Norte 28 Norte 0 -- -- 36
2020-09-02 17:00:00 21.8 14 Norte 28 Norte 0 -- -- 33
2020-09-02 16:00:00 21.2 14 Nordeste 27 Nordeste 0 -- -- 36
2020-09-02 15:00:00 20.3 15 Nordeste 27 Nordeste 0 -- -- 40
2020-09-02 14:00:00 19.4 13 Nordeste 26 Nordeste 0 -- -- 40
2020-09-02 13:00:00 17.8 9 Norte 27 Norte 0 -- -- 42
2020-09-02 12:00:00 16.1 17 Noroeste 31 Norte 0 -- -- 46
2020-09-02 11:00:00 14.9 12 Norte 35 Noroeste 0 -- -- 52
2020-09-02 10:00:00 13.7 10 Norte 26 Noroeste 0 -- -- 61
2020-09-02 09:00:00 9.2 2 Este 8 Sudeste 0 -- -- 81
2020-09-02 08:00:00 6.1 0 Calma 4 Este 0 -- -- 83
2020-09-02 07:00:00 6.3 0 Calma 5 Norte 0 -- -- 82
2020-09-02 06:00:00 6.8 2 Sudeste 5 Nordeste 0 -- -- 82
2020-09-02 05:00:00 7.7 2 Sur 6 Este 0 -- -- 81
2020-09-02 04:00:00 8.5 0 Calma 6 Nordeste 0 -- -- 77
2020-09-02 03:00:00 9.3 0 Calma 16 Noroeste 0 -- -- 73
2020-09-02 02:00:00 11.7 6 Norte 17 Norte 0 -- -- 65
2020-09-02 01:00:00 12.4 6 Norte 14 Norte 0 -- -- 63
2020-09-02 00:00:00 13 8 Norte 18 Noroeste 0 -- -- 65
2020-09-01 23:00:00 13.6 6 Norte 22 Norte 0 -- -- 63
2020-09-01 22:00:00 14.5 15 Nordeste 31 Nordeste 0 -- -- 56
2020-09-01 21:00:00 16.2 16 Norte 31 Nordeste 0 -- -- 49
2020-09-01 20:00:00 18.1 14 Nordeste 28 Norte 0 -- -- 41
2020-09-01 19:00:00 20.4 13 Norte 25 Norte 0 -- -- 33
2020-09-01 18:00:00 21.1 10 Norte 28 Norte 0 -- -- 29
2020-09-01 17:00:00 21.6 10 Nordeste 29 Este 0 -- -- 29
2020-09-01 16:00:00 21.3 14 Nordeste 27 Nordeste 0 -- -- 33
2020-09-01 15:00:00 20.7 9 Este 22 Nordeste 0 -- -- 32
2020-09-01 14:00:00 19.9 7 Nordeste 20 Nordeste 0 -- -- 37
2020-09-01 13:00:00 19.7 8 Nordeste 19 Nordeste 0 -- -- 35
2020-09-01 12:00:00 19.2 10 Nordeste 19 Nordeste 0 -- -- 37
2020-09-01 11:00:00 16.3 0 Calma 5 Nordeste 0 -- -- 42
2020-09-01 10:00:00 11.8 3 Este 7 Sudoeste 0 -- -- 63
2020-09-01 09:00:00 8.8 0 Calma 4 Sudeste 0 -- -- 73
2020-09-01 08:00:00 7.5 0 Calma 4 Sudoeste 0 -- -- 77
2020-09-01 07:00:00 7.3 0 Calma 3 Sudeste 0 -- -- 78
2020-09-01 06:00:00 6.8 0 Calma 4 Sur 0 -- -- 77
2020-09-01 05:00:00 7.1 0 Calma 3 Oeste 0 -- -- 75
2020-09-01 04:00:00 7.4 2 Sur 4 Sur 0 -- -- 73
2020-09-01 03:00:00 7.7 0 Calma 3 Sur 0 -- -- 72
2020-09-01 02:00:00 7.9 0 Calma 3 Sur 0 -- -- 70
2020-09-01 01:00:00 8.6 0 Calma 6 Sudoeste 0 -- -- 66
2020-09-01 00:00:00 9.9 0 Calma 6 Sur 0 -- -- 62
2020-08-31 23:00:00 12.1 0 Calma 8 Nordeste 0 -- -- 57
2020-08-31 22:00:00 14.6 0 Calma 9 Nordeste 0 -- -- 48
2020-08-31 21:00:00 16.7 5 Norte 15 Norte 0 -- -- 45
2020-08-31 20:00:00 17.8 7 Norte 17 Norte 0 -- -- 43
2020-08-31 19:00:00 19.6 10 Nordeste 26 Nordeste 0 -- -- 34
2020-08-31 18:00:00 21.1 12 Nordeste 24 Nordeste 0 -- -- 32
2020-08-31 17:00:00 21 13 Nordeste 25 Nordeste 0 -- -- 32
2020-08-31 16:00:00 20.9 10 Nordeste 21 Norte 0 -- -- 33
2020-08-31 15:00:00 21.1 8 Sudeste 17 Este 0 -- -- 27
2020-08-31 14:00:00 20 8 Este 18 Nordeste 0 -- -- 22
2020-08-31 13:00:00 17.8 5 Norte 17 Nordeste 0 -- -- 29
2020-08-31 12:00:00 16.3 4 Nordeste 16 Nordeste 0 -- -- 36
2020-08-31 11:00:00 13.6 5 Sudoeste 15 Sudoeste 0 -- -- 43
2020-08-31 10:00:00 8.8 2 Este 5 Este 0 -- -- 74
2020-08-31 09:00:00 3.3 0 Calma 3 Sudeste 0 -- -- 89
2020-08-31 08:00:00 1 0 Calma 3 Sur 0 -- -- 87
2020-08-31 07:00:00 1.4 0 Calma 3 Sudeste 0 -- -- 87
2020-08-31 06:00:00 2.4 0 Calma 4 Sudeste 0 -- -- 85
2020-08-31 05:00:00 3.3 3 Sur 5 Sur 0 -- -- 85
2020-08-31 04:00:00 4.5 3 Oeste 6 Oeste 0 -- -- 85
2020-08-31 03:00:00 5.8 2 Sudoeste 6 Este 0 -- -- 82
2020-08-31 02:00:00 6.9 3 Sur 6 Sur 0 -- -- 76
2020-08-31 01:00:00 9 0 Calma 11 Norte 0 -- -- 72
2020-08-31 00:00:00 9.8 6 Norte 25 Norte 0 -- -- 72
2020-08-30 23:00:00 10 7 Norte 17 Noroeste 0 -- -- 71
2020-08-30 22:00:00 9.8 6 Norte 19 Norte 0 -- -- 69
2020-08-30 21:00:00 10.4 5 Nordeste 21 Nordeste 0 -- -- 67
2020-08-30 20:00:00 12.1 10 Norte 27 Noroeste 0 -- -- 62
2020-08-30 19:00:00 13.7 18 Noroeste 31 Noroeste 0 -- -- 52
2020-08-30 18:00:00 14.9 17 Noroeste 30 Noroeste 0 -- -- 47
2020-08-30 17:00:00 13.2 13 Norte 25 Norte 0 -- -- 53
2020-08-30 16:00:00 13.5 12 Norte 32 Norte 0 -- -- 53
2020-08-30 15:00:00 12.5 12 Noroeste 30 Noroeste 0 -- -- 57
2020-08-30 14:00:00 12.4 19 Noroeste 33 Noroeste 0 -- -- 58
2020-08-30 13:00:00 12.3 15 Norte 36 Noroeste 0 -- -- 56
2020-08-30 12:00:00 11.8 17 Noroeste 41 Noroeste 0 -- -- 54
2020-08-30 11:00:00 11.8 10 Norte 26 Norte 0 -- -- 50
2020-08-30 10:00:00 10.4 8 Noroeste 31 Noroeste 0 -- -- 57
2020-08-30 09:00:00 9.2 17 Noroeste 37 Oeste 0 -- -- 64
2020-08-30 08:00:00 7.6 9 Noroeste 28 Noroeste 0 -- -- 71
2020-08-30 07:00:00 7.6 2 Sudeste 28 Noroeste 0 -- -- 70
2020-08-30 06:00:00 8.2 18 Noroeste 40 Noroeste 0 -- -- 69
2020-08-30 05:00:00 8.4 19 Noroeste 41 Noroeste 0 -- -- 69
2020-08-30 04:00:00 8.3 9 Noroeste 37 Oeste 0 -- -- 69
2020-08-30 03:00:00 8.8 26 Noroeste 39 Noroeste 0 -- -- 71
2020-08-30 02:00:00 8.8 17 Noroeste 29 Sudeste 0 -- -- 71
2020-08-30 01:00:00 8.5 10 Noroeste 46 Noroeste 0 -- -- 68
2020-08-30 00:00:00 9.1 32 Noroeste 61 Noroeste 0 -- -- 55
2020-08-29 23:00:00 9.2 35 Noroeste 54 Noroeste 0 -- -- 69
2020-08-29 22:00:00 9.8 28 Noroeste 56 Noroeste 0 -- -- 73
2020-08-29 21:00:00 10.8 26 Noroeste 43 Noroeste 0 -- -- 70
2020-08-29 20:00:00 11.4 22 Noroeste 39 Noroeste 0 -- -- 69
2020-08-29 19:00:00 12.6 15 Noroeste 34 Noroeste 0 -- -- 65
2020-08-29 18:00:00 11.7 15 Noroeste 42 Noroeste 0 -- -- 70
2020-08-29 17:00:00 13 26 Oeste 49 Noroeste 0 -- -- 63
2020-08-29 16:00:00 15.2 18 Noroeste 40 Oeste 0 -- -- 50
2020-08-29 15:00:00 15.7 20 Noroeste 37 Noroeste 0 -- -- 48
2020-08-29 14:00:00 14.4 20 Noroeste 39 Noroeste 0 -- -- 52
2020-08-29 13:00:00 13.6 19 Noroeste 37 Noroeste 0 -- -- 54
2020-08-29 12:00:00 12.8 17 Noroeste 39 Noroeste 0 -- -- 56
2020-08-29 11:00:00 12.2 16 Noroeste 41 Noroeste 0 -- -- 59
2020-08-29 10:00:00 11.2 21 Noroeste 43 Noroeste 0 -- -- 65
2020-08-29 09:00:00 10.6 23 Noroeste 39 Noroeste 0 -- -- 66
2020-08-29 08:00:00 8.6 10 Noroeste 31 Noroeste 0 -- -- 73
2020-08-29 07:00:00 8.2 5 Noroeste 24 Noroeste 0 -- -- 75
2020-08-29 06:00:00 8.4 13 Noroeste 32 Noroeste 0 -- -- 76
2020-08-29 05:00:00 9 2 Norte 17 Noroeste 0 -- -- 76
2020-08-29 04:00:00 9.5 6 Noroeste 17 Norte 0 -- -- 73
2020-08-29 03:00:00 9.6 0 Calma 24 Noroeste 0 -- -- 72
2020-08-29 02:00:00 10.4 10 Noroeste 21 Oeste 0 -- -- 69
2020-08-29 01:00:00 10.8 3 Noroeste 19 Norte 0 -- -- 74
2020-08-29 00:00:00 10.7 7 Noroeste 28 Noroeste 0 -- -- 76
2020-08-28 23:00:00 10.6 14 Norte 28 Noroeste 0 -- -- 78
2020-08-28 22:00:00 11.2 8 Norte 29 Nordeste 0 -- -- 85
2020-08-28 21:00:00 11.3 10 Norte 31 Nordeste 0 -- -- 85
2020-08-28 20:00:00 12.1 15 Norte 30 Nordeste 0 -- -- 82
2020-08-28 19:00:00 13.6 13 Norte 27 Nordeste 0 -- -- 78
2020-08-28 18:00:00 14.3 15 Nordeste 30 Nordeste 0 -- -- 77
2020-08-28 17:00:00 14.8 17 Nordeste 31 Nordeste 0 -- -- 77
2020-08-28 16:00:00 16.1 15 Nordeste 31 Norte 0 -- -- 74
2020-08-28 15:00:00 16.9 17 Nordeste 29 Nordeste 0 -- -- 74
2020-08-28 14:00:00 18.3 17 Nordeste 30 Nordeste 0 -- -- 72
2020-08-28 13:00:00 21 15 Nordeste 24 Nordeste 0 -- -- 65
2020-08-28 12:00:00 19.4 11 Nordeste 17 Norte 0 -- -- 70
2020-08-28 11:00:00 18.5 6 Nordeste 14 Nordeste 0 -- -- 75
2020-08-28 10:00:00 17.2 5 Nordeste 11 Este 0 -- -- 80
2020-08-28 09:00:00 15.9 0 Calma 6 Sudoeste 0 -- -- 84
2020-08-28 08:00:00 14.8 0 Calma 5 Noroeste 0 -- -- 86
2020-08-28 07:00:00 13.7 0 Calma 4 Este 0 -- -- 87
2020-08-28 06:00:00 13.2 2 Este 4 Este 0 -- -- 85
2020-08-28 05:00:00 13.4 0 Calma 4 Oeste 0 -- -- 85
2020-08-28 04:00:00 13.9 0 Calma 5 Oeste 0 -- -- 86
2020-08-28 03:00:00 14.6 0 Calma 4 Sudeste 0 -- -- 84
2020-08-28 02:00:00 15.4 0 Calma 7 Sur 0 -- -- 81
2020-08-28 01:00:00 16.5 0 Calma 4 Sudeste 0 -- -- 78
2020-08-28 00:00:00 18.3 0 Calma 9 Nordeste 0 -- -- 74
2020-08-27 23:00:00 19.9 6 Norte 17 Nordeste 0 -- -- 70
2020-08-27 22:00:00 21.6 8 Nordeste 17 Nordeste 0 -- -- 64
2020-08-27 21:00:00 23 12 Nordeste 25 Nordeste 0 -- -- 60
2020-08-27 20:00:00 25.1 15 Nordeste 33 Nordeste 0 -- -- 52
2020-08-27 19:00:00 27.2 11 Nordeste 26 Este 0 -- -- 41
2020-08-27 18:00:00 29.2 12 Nordeste 23 Norte 0 -- -- 37
2020-08-27 17:00:00 29.3 12 Nordeste 27 Nordeste 0 -- -- 38
2020-08-27 16:00:00 28.5 15 Norte 26 Nordeste 0 -- -- 39
2020-08-27 15:00:00 28.9 10 Este 23 Este 0 -- -- 39
2020-08-27 14:00:00 27.6 8 Nordeste 21 Nordeste 0 -- -- 42
2020-08-27 13:00:00 26.7 12 Nordeste 24 Este 0 -- -- 45
2020-08-27 12:00:00 26.1 12 Nordeste 19 Nordeste 0 -- -- 48
2020-08-27 11:00:00 24.2 9 Nordeste 14 Este 0 -- -- 54
2020-08-27 10:00:00 18.9 0 Calma 5 Este 0 -- -- 66
2020-08-27 09:00:00 13.5 0 Calma 4 Este 0 -- -- 84
2020-08-27 08:00:00 11.3 0 Calma 4 Oeste 0 -- -- 86
2020-08-27 07:00:00 11.5 0 Calma 6 Sur 0 -- -- 85
2020-08-27 06:00:00 11.9 0 Calma 4 Sudoeste 0 -- -- 86
2020-08-27 05:00:00 12.5 3 Sur 5 Sudoeste 0 -- -- 85
2020-08-27 04:00:00 13 0 Calma 6 Sudeste 0 -- -- 84
2020-08-27 03:00:00 14 0 Calma 3 Sur 0 -- -- 83
2020-08-27 02:00:00 15 0 Calma 4 Sur 0 -- -- 79
2020-08-27 01:00:00 16.2 0 Calma 2 Noroeste 0 -- -- 76
2020-08-27 00:00:00 17 4 Sur 9 Sur 0 -- -- 73
2020-08-26 23:00:00 19.7 0 Calma 8 Sur 0 -- -- 65
2020-08-26 22:00:00 22.6 5 Nordeste 17 Nordeste 0 -- -- 62
2020-08-26 21:00:00 24.5 12 Nordeste 20 Nordeste 0 -- -- 53
2020-08-26 20:00:00 26.1 10 Norte 23 Norte 0 -- -- 42
2020-08-26 19:00:00 28.3 13 Norte 24 Norte 0 -- -- 38
2020-08-26 18:00:00 28.5 14 Nordeste 30 Nordeste 0 -- -- 40
2020-08-26 17:00:00 28.7 15 Nordeste 26 Nordeste 0 -- -- 41
2020-08-26 16:00:00 28.3 13 Nordeste 26 Este 0 -- -- 41
2020-08-26 15:00:00 28 17 Nordeste 27 Este 0 -- -- 40
2020-08-26 14:00:00 27.6 14 Nordeste 24 Nordeste 0 -- -- 42
2020-08-26 13:00:00 26.8 13 Nordeste 21 Nordeste 0 -- -- 43
2020-08-26 12:00:00 25.4 10 Nordeste 16 Nordeste 0 -- -- 45
2020-08-26 11:00:00 23.3 6 Nordeste 12 Nordeste 0 -- -- 50
2020-08-26 10:00:00 17.9 0 Calma 5 Sudeste 0 -- -- 65
2020-08-26 09:00:00 12.1 2 Sudeste 6 Sudeste 0 -- -- 83
2020-08-26 08:00:00 10.1 0 Calma 4 Sudeste 0 -- -- 85
2020-08-26 07:00:00 10.2 0 Calma 3 Sudoeste 0 -- -- 85
2020-08-26 06:00:00 10.7 0 Calma 3 Sudoeste 0 -- -- 81
2020-08-26 05:00:00 11.4 0 Calma 3 Sudoeste 0 -- -- 81
2020-08-26 04:00:00 12 0 Calma 4 Sudoeste 0 -- -- 78
2020-08-26 03:00:00 12.9 0 Calma 4 Sur 0 -- -- 75
2020-08-26 02:00:00 13.8 0 Calma 5 Sudoeste 0 -- -- 71
2020-08-26 01:00:00 14.8 0 Calma 4 Sudoeste 0 -- -- 66
2020-08-26 00:00:00 16.3 3 Sudoeste 5 Sudoeste 0 -- -- 61
2020-08-25 23:00:00 19 3 Este 13 Nordeste 0 -- -- 52
2020-08-25 22:00:00 21.8 9 Nordeste 16 Nordeste 0 -- -- 47
2020-08-25 21:00:00 25.2 6 Nordeste 13 Este 0 -- -- 36
2020-08-25 20:00:00 27.1 9 Nordeste 19 Nordeste 0 -- -- 32
2020-08-25 19:00:00 29.6 9 Nordeste 22 Nordeste 0 -- -- 28
2020-08-25 18:00:00 29.3 13 Nordeste 27 Norte 0 -- -- 28
2020-08-25 17:00:00 29.3 15 Nordeste 25 Norte 0 -- -- 29
2020-08-25 16:00:00 28.9 16 Norte 36 Este 0 -- -- 30
2020-08-25 15:00:00 29.1 13 Nordeste 25 Nordeste 0 -- -- 29
2020-08-25 14:00:00 28.6 10 Norte 22 Noroeste 0 -- -- 31
2020-08-25 13:00:00 28.2 10 Nordeste 23 Este 0 -- -- 31
2020-08-25 12:00:00 27.1 5 Norte 13 Nordeste 0 -- -- 30
2020-08-25 11:00:00 24.7 5 Nordeste 10 Nordeste 0 -- -- 32
2020-08-25 10:00:00 18.9 0 Calma -- -- 0 -- -- 59
2020-08-25 09:00:00 12.5 0 Calma 3 Sudeste 0 -- -- 81
2020-08-25 08:00:00 9.2 0 Calma 4 Oeste 0 -- -- 81
2020-08-25 07:00:00 8.6 0 Calma 4 Sudoeste 0 -- -- 83
2020-08-25 06:00:00 8.1 0 Calma 3 Este 0 -- -- 83
2020-08-25 05:00:00 8.8 0 Calma 4 Sur 0 -- -- 83
2020-08-25 04:00:00 8.9 0 Calma 4 Este 0 -- -- 82
2020-08-25 03:00:00 9.5 0 Calma 3 Sudoeste 0 -- -- 81
2020-08-25 02:00:00 10.5 0 Calma 6 Sur 0 -- -- 78
2020-08-25 01:00:00 11.5 3 Sur 4 Sudoeste 0 -- -- 75
2020-08-25 00:00:00 12.8 0 Calma 5 Sur 0 -- -- 74
2020-08-24 23:00:00 14.9 0 Calma 5 Este 0 -- -- 68
2020-08-24 22:00:00 18.4 0 Calma 5 Nordeste 0 -- -- 59
2020-08-24 21:00:00 21 0 Calma 12 Nordeste 0 -- -- 50
2020-08-24 20:00:00 22.7 9 Nordeste 18 Norte 0 -- -- 47
2020-08-24 19:00:00 24.8 12 Nordeste 22 Nordeste 0 -- -- 42
2020-08-24 18:00:00 25.3 12 Nordeste 22 Nordeste 0 -- -- 42
2020-08-24 17:00:00 24.9 13 Norte 22 Norte 0 -- -- 43
2020-08-24 16:00:00 24.6 13 Nordeste 24 Norte 0 -- -- 43
2020-08-24 15:00:00 23.8 14 Nordeste 23 Nordeste 0 -- -- 45
2020-08-24 14:00:00 23 8 Norte 19 Nordeste 0 -- -- 45
2020-08-24 13:00:00 21.3 13 Nordeste 21 Nordeste 0 -- -- 49
2020-08-24 12:00:00 19.7 9 Nordeste 16 Norte 0 -- -- 50
2020-08-24 11:00:00 16.8 9 Nordeste 24 Norte 0 -- -- 58
2020-08-24 10:00:00 14.8 12 Nordeste 22 Nordeste 0 -- -- 64
2020-08-24 09:00:00 11.1 0 Calma 2 Norte 0 -- -- 79
2020-08-24 08:00:00 7.6 0 Calma 6 Sudeste 0 -- -- 81
2020-08-24 07:00:00 7.3 4 Sur 5 Sur 0 -- -- 83
2020-08-24 06:00:00 8.5 0 Calma 3 Noroeste 0 -- -- 81
2020-08-24 05:00:00 9 0 Calma 5 Sudeste 0 -- -- 79
2020-08-24 04:00:00 9.8 2 Sudeste 5 Sudeste 0 -- -- 77
2020-08-24 03:00:00 11.6 2 Sudoeste 9 Oeste 0 -- -- 76
2020-08-24 02:00:00 12.4 0 Calma 9 Oeste 0 -- -- 75
2020-08-24 01:00:00 13.8 0 Calma 13 Noroeste 0 -- -- 71
2020-08-24 00:00:00 14.7 0 Calma 13 Nordeste 0 -- -- 68
2020-08-23 23:00:00 15.9 7 Nordeste 15 Norte 0 -- -- 65
2020-08-23 22:00:00 17.2 8 Norte 20 Noroeste 0 -- -- 62
2020-08-23 21:00:00 18.4 7 Norte 22 Noroeste 0 -- -- 58
2020-08-23 20:00:00 20.1 10 Norte 25 Norte 0 -- -- 48
2020-08-23 19:00:00 21.5 13 Norte 30 Norte 0 -- -- 42
2020-08-23 18:00:00 23.2 13 Norte 27 Nordeste 0 -- -- 39
2020-08-23 17:00:00 22.7 18 Nordeste 31 Nordeste 0 -- -- 42
2020-08-23 16:00:00 22.8 15 Nordeste 26 Nordeste 0 -- -- 42
2020-08-23 15:00:00 22.3 14 Nordeste 23 Nordeste 0 -- -- 42
2020-08-23 14:00:00 21 14 Nordeste 22 Norte 0 -- -- 44
2020-08-23 13:00:00 20.1 9 Nordeste 18 Nordeste 0 -- -- 47
2020-08-23 12:00:00 18.4 6 Este 17 Norte 0 -- -- 57
2020-08-23 11:00:00 16.8 6 Nordeste 15 Nordeste 0 -- -- 63
2020-08-23 10:00:00 15.1 11 Nordeste 19 Nordeste 0 -- -- 69
2020-08-23 09:00:00 12.8 2 Este 6 Este 0 -- -- 82
2020-08-23 08:00:00 12.1 2 Noroeste 12 Noroeste 0 -- -- 78
2020-08-23 07:00:00 13.6 6 Oeste 14 Oeste 0 -- -- 74
2020-08-23 06:00:00 14.3 6 Noroeste 12 Norte 0 -- -- 73
2020-08-23 05:00:00 14.5 6 Nordeste 12 Nordeste 0 -- -- 76
2020-08-23 04:00:00 15 4 Noroeste 14 Nordeste 0 -- -- 74
2020-08-23 03:00:00 15.1 6 Nordeste 13 Nordeste 0 -- -- 78
2020-08-23 02:00:00 15.2 6 Nordeste 13 Nordeste 0 -- -- 78
2020-08-23 01:00:00 15.1 0 Calma 8 Norte 0 -- -- 77
2020-08-23 00:00:00 15.2 3 Norte 17 Nordeste 0 -- -- 75